Time;durP1;ratioP1;P1;durP2;ratioP2;P2;SDS_P1;SDS_P2;PMS_P1;PMS_P2;Temp;Humidity;BMP_temperature;BMP_pressure;BME280_temperature;BME280_humidity;BME280_pressure;Samples;Min_cycle;Max_cycle;Signal;HPM_P1;HPM_P2
2022/06/22 00:02:34;;;;;;;12.52;8.18;;;;;;;;;;10382962;28;20062;-70
2022/06/22 00:07:48;;;;;;;16.10;8.13;;;;;;;;;;10399877;28;20112;-76
2022/06/22 00:12:53;;;;;;;18.52;8.82;;;;;;;;;;10381982;28;20029;-75
2022/06/22 00:17:53;;;;;;;17.27;7.93;;;;;;;;;;10382086;28;20116;-70
2022/06/22 00:22:56;;;;;;;18.83;8.80;;;;;;;;;;10398908;28;20029;-74
2022/06/22 00:28:16;;;;;;;11.52;8.23;;;;;;;;;;10382078;28;20061;-71
2022/06/22 00:33:21;;;;;;;14.45;8.25;;;;;;;;;;10381855;28;20549;-70
2022/06/22 00:38:21;;;;;;;17.35;9.20;;;;;;;;;;10399951;28;20030;-75
2022/06/22 00:43:24;;;;;;;20.13;11.20;;;;;;;;;;10398732;28;20017;-75
2022/06/22 00:48:35;;;;;;;17.77;9.40;;;;;;;;;;10381953;28;20025;-75
2022/06/22 00:53:35;;;;;;;15.13;9.20;;;;;;;;;;10381217;28;20078;-75
2022/06/22 00:58:41;;;;;;;15.45;8.93;;;;;;;;;;10381500;28;20488;-75
2022/06/22 01:03:44;;;;;;;12.38;9.55;;;;;;;;;;10380397;28;20053;-73
2022/06/22 01:08:48;;;;;;;20.00;10.32;;;;;;;;;;10379496;28;20025;-75
2022/06/22 01:13:49;;;;;;;13.52;8.68;;;;;;;;;;10363625;28;20029;-73
2022/06/22 01:18:56;;;;;;;15.13;9.07;;;;;;;;;;10361193;28;20033;-75
2022/06/22 01:24:00;;;;;;;20.83;10.57;;;;;;;;;;10379622;28;20115;-70
2022/06/22 01:29:01;;;;;;;14.57;9.32;;;;;;;;;;10379553;28;20061;-73
2022/06/22 01:34:02;;;;;;;16.50;10.30;;;;;;;;;;10380035;28;20594;-73
2022/06/22 01:39:02;;;;;;;16.77;10.27;;;;;;;;;;10378922;28;20113;-74
2022/06/22 01:44:06;;;;;;;20.35;9.63;;;;;;;;;;10379840;28;20029;-74
2022/06/22 01:49:16;;;;;;;13.55;9.10;;;;;;;;;;10379583;28;20029;-77
2022/06/22 01:54:25;;;;;;;16.30;9.70;;;;;;;;;;10377890;28;20021;-74
2022/06/22 01:59:31;;;;;;;17.75;10.13;;;;;;;;;;10360343;28;20495;-77
2022/06/22 02:04:35;;;;;;;18.90;9.73;;;;;;;;;;10379407;28;20559;-72
2022/06/22 02:09:46;;;;;;;14.25;9.63;;;;;;;;;;10378987;28;20053;-75
2022/06/22 02:14:52;;;;;;;17.52;10.63;;;;;;;;;;10378899;28;20029;-74
2022/06/22 02:20:11;;;;;;;14.90;9.38;;;;;;;;;;10396776;28;20164;-71
2022/06/22 02:25:12;;;;;;;17.90;10.05;;;;;;;;;;10402586;28;20058;-72
2022/06/22 02:30:12;;;;;;;18.08;10.88;;;;;;;;;;10387363;28;20052;-73
2022/06/22 02:35:13;;;;;;;18.52;10.48;;;;;;;;;;10386769;28;20048;-74
2022/06/22 02:40:22;;;;;;;19.60;11.10;;;;;;;;;;10385706;28;20032;-72
2022/06/22 02:45:22;;;;;;;14.25;10.05;;;;;;;;;;10385860;28;20017;-71
2022/06/22 02:50:26;;;;;;;14.75;10.85;;;;;;;;;;10402852;28;20535;-77
2022/06/22 02:55:28;;;;;;;22.02;12.15;;;;;;;;;;10384500;28;20124;-71
2022/06/22 03:00:33;;;;;;;15.50;11.63;;;;;;;;;;10386475;28;20029;-73
2022/06/22 03:05:34;;;;;;;20.45;10.88;;;;;;;;;;10402872;28;20483;-78
2022/06/22 03:10:47;;;;;;;22.15;11.13;;;;;;;;;;10385943;28;20017;-75
2022/06/22 03:15:48;;;;;;;21.02;12.23;;;;;;;;;;10369066;28;20020;-74
2022/06/22 03:20:58;;;;;;;18.73;11.88;;;;;;;;;;10403210;28;20029;-74
2022/06/22 03:26:09;;;;;;;16.02;11.00;;;;;;;;;;10402642;28;20487;-70
2022/06/22 03:31:14;;;;;;;17.55;11.10;;;;;;;;;;10385155;28;20108;-73
2022/06/22 03:36:20;;;;;;;19.83;12.55;;;;;;;;;;10383509;28;20054;-73
2022/06/22 03:41:23;;;;;;;20.60;11.70;;;;;;;;;;10384973;28;20026;-70
2022/06/22 03:46:27;;;;;;;21.45;12.02;;;;;;;;;;10383150;28;20033;-75
2022/06/22 03:51:30;;;;;;;22.38;12.70;;;;;;;;;;10394335;28;20022;-70
2022/06/22 03:56:36;;;;;;;56.03;23.95;;;;;;;;;;10380081;28;20040;-70
2022/06/22 04:01:36;;;;;;;50.55;25.20;;;;;;;;;;10383299;28;20361;-73
2022/06/22 04:06:47;;;;;;;31.75;15.60;;;;;;;;;;10382131;28;20022;-72
2022/06/22 04:11:52;;;;;;;23.17;13.43;;;;;;;;;;10382276;28;20388;-73
2022/06/22 04:16:54;;;;;;;17.35;11.82;;;;;;;;;;10381463;28;20018;-75
2022/06/22 04:22:02;;;;;;;19.20;12.07;;;;;;;;;;10382211;28;20025;-77
2022/06/22 04:27:21;;;;;;;26.05;13.10;;;;;;;;;;10381612;28;20021;-73
2022/06/22 04:32:23;;;;;;;21.73;12.32;;;;;;;;;;10382497;28;20403;-72
2022/06/22 04:37:40;;;;;;;19.27;10.73;;;;;;;;;;10398692;28;20028;-77
2022/06/22 04:42:41;;;;;;;19.30;10.70;;;;;;;;;;10380405;28;20538;-75
2022/06/22 04:47:42;;;;;;;18.00;10.25;;;;;;;;;;10379800;28;20021;-74
2022/06/22 04:52:44;;;;;;;19.02;10.48;;;;;;;;;;10380818;28;20021;-75
2022/06/22 04:57:47;;;;;;;15.35;9.68;;;;;;;;;;10380561;28;20027;-76
2022/06/22 05:02:49;;;;;;;16.20;9.23;;;;;;;;;;10380449;28;20093;-75
2022/06/22 05:07:55;;;;;;;12.65;9.27;;;;;;;;;;10380602;28;20025;-74
2022/06/22 05:13:01;;;;;;;15.88;8.85;;;;;;;;;;10380354;28;20025;-72
2022/06/22 05:18:02;;;;;;;16.45;10.18;;;;;;;;;;10379983;28;20041;-76
2022/06/22 05:23:05;;;;;;;17.30;9.48;;;;;;;;;;10379429;28;20150;-75
2022/06/22 05:28:12;;;;;;;20.17;8.25;;;;;;;;;;10396000;28;20537;-75
2022/06/22 05:33:14;;;;;;;14.47;7.73;;;;;;;;;;10398327;28;20026;-75
2022/06/22 05:38:16;;;;;;;11.75;7.13;;;;;;;;;;10368338;28;20037;-69
2022/06/22 05:43:17;;;;;;;12.90;7.15;;;;;;;;;;10386852;28;20372;-73
2022/06/22 05:48:19;;;;;;;14.63;7.97;;;;;;;;;;10369533;28;20021;-76
2022/06/22 05:53:38;;;;;;;13.65;7.15;;;;;;;;;;10372724;28;20021;-70
2022/06/22 05:58:42;;;;;;;17.13;6.13;;;;;;;;;;10391845;28;20026;-73
2022/06/22 06:03:45;;;;;;;18.92;8.55;;;;;;;;;;10396974;28;20045;-75
2022/06/22 06:08:48;;;;;;;15.88;7.07;;;;;;;;;;10376577;28;20018;-73
2022/06/22 06:13:52;;;;;;;9.98;7.10;;;;;;;;;;10378956;28;20033;-73
2022/06/22 06:18:56;;;;;;;14.88;7.82;;;;;;;;;;10377897;28;20542;-68
2022/06/22 06:24:00;;;;;;;15.35;8.13;;;;;;;;;;10391729;28;20029;-73
2022/06/22 06:29:10;;;;;;;16.83;8.18;;;;;;;;;;10379840;28;20052;-74
2022/06/22 06:34:14;;;;;;;12.77;7.53;;;;;;;;;;10379684;28;20108;-72
2022/06/22 06:39:18;;;;;;;16.73;7.47;;;;;;;;;;10379502;28;20024;-75
2022/06/22 06:44:21;;;;;;;8.77;5.72;;;;;;;;;;10394341;28;20392;-75
2022/06/22 06:49:33;;;;;;;13.82;6.22;;;;;;;;;;10396685;28;20537;-75
2022/06/22 06:54:42;;;;;;;16.98;7.20;;;;;;;;;;10397202;28;20495;-72
2022/06/22 06:59:44;;;;;;;13.85;7.38;;;;;;;;;;10378320;28;20068;-73
2022/06/22 07:04:45;;;;;;;16.25;7.47;;;;;;;;;;10377831;28;20056;-74
2022/06/22 07:09:46;;;;;;;12.25;7.65;;;;;;;;;;10397415;28;20274;-72
2022/06/22 07:14:46;;;;;;;16.80;8.52;;;;;;;;;;10381205;28;20032;-71
2022/06/22 07:19:58;;;;;;;16.08;7.90;;;;;;;;;;10380333;28;20053;-70
2022/06/22 07:25:02;;;;;;;17.45;8.27;;;;;;;;;;10372574;28;20010;-71
2022/06/22 07:30:15;;;;;;;17.38;8.07;;;;;;;;;;10391842;28;20018;-69
2022/06/22 07:35:24;;;;;;;14.23;7.60;;;;;;;;;;10388122;28;20028;-77
2022/06/22 07:40:26;;;;;;;12.82;8.35;;;;;;;;;;10395591;28;20040;-73
2022/06/22 07:45:27;;;;;;;17.83;8.70;;;;;;;;;;10380075;28;20025;-73
2022/06/22 07:50:36;;;;;;;16.80;9.13;;;;;;;;;;10397536;28;20017;-71
2022/06/22 07:55:55;;;;;;;17.25;9.55;;;;;;;;;;10395555;28;20032;-74
2022/06/22 08:01:02;;;;;;;18.50;11.18;;;;;;;;;;10394122;28;20042;-74
2022/06/22 08:06:23;;;;;;;19.95;12.10;;;;;;;;;;10379125;28;20021;-75
2022/06/22 08:11:30;;;;;;;17.48;10.90;;;;;;;;;;10377212;28;20488;-72
2022/06/22 08:16:32;;;;;;;17.50;11.15;;;;;;;;;;10395128;28;20028;-76
2022/06/22 08:21:35;;;;;;;20.40;10.10;;;;;;;;;;10377619;28;20556;-70
2022/06/22 08:26:35;;;;;;;19.73;10.00;;;;;;;;;;10392877;28;20026;-74
2022/06/22 08:31:40;;;;;;;14.30;8.83;;;;;;;;;;10378047;28;20439;-73
2022/06/22 08:36:44;;;;;;;14.05;9.23;;;;;;;;;;10392535;28;20275;-75
2022/06/22 08:42:06;;;;;;;13.88;7.93;;;;;;;;;;10395330;28;20094;-75
2022/06/22 08:47:25;;;;;;;23.42;8.27;;;;;;;;;;10376191;28;20025;-78
2022/06/22 08:52:34;;;;;;;15.40;7.07;;;;;;;;;;10393682;28;20394;-75
2022/06/22 08:57:48;;;;;;;18.75;7.22;;;;;;;;;;10393347;28;20025;-74
2022/06/22 09:02:54;;;;;;;15.00;6.30;;;;;;;;;;10393218;28;20054;-75
2022/06/22 09:08:07;;;;;;;12.00;6.90;;;;;;;;;;10392965;28;20036;-69
2022/06/22 09:13:10;;;;;;;10.15;6.38;;;;;;;;;;10392853;28;20060;-69
2022/06/22 09:18:16;;;;;;;9.70;5.25;;;;;;;;;;10391290;28;20024;-69
2022/06/22 09:23:32;;;;;;;10.90;5.97;;;;;;;;;;10376568;28;20014;-77
2022/06/22 09:28:32;;;;;;;;;;;;;;;;;;10395099;28;20389;-76
2022/06/22 09:33:35;;;;;;;9.02;5.47;;;;;;;;;;10391686;28;19909;-72
2022/06/22 09:38:48;;;;;;;11.23;5.78;;;;;;;;;;10376197;28;20018;-73
2022/06/22 09:44:08;;;;;;;10.48;4.68;;;;;;;;;;10367507;28;20660;-75
2022/06/22 09:49:23;;;;;;;13.15;6.38;;;;;;;;;;10390260;28;20045;-71
2022/06/22 10:00:24;;;;;;;12.25;6.00;;;;;;;;;;10392878;28;20514;-70
2022/06/22 10:05:33;;;;;;;9.50;5.35;;;;;;;;;;10375442;28;20062;-77
2022/06/22 10:10:39;;;;;;;6.38;4.35;;;;;;;;;;10384436;28;20032;-71
2022/06/22 10:15:55;;;;;;;12.23;4.90;;;;;;;;;;10367533;28;20034;-72
2022/06/22 10:20:56;;;;;;;17.42;6.63;;;;;;;;;;10371412;28;20499;-74
2022/06/22 10:26:15;;;;;;;9.85;5.10;;;;;;;;;;10368241;28;20037;-74
2022/06/22 10:31:22;;;;;;;13.43;4.93;;;;;;;;;;10386515;28;20061;-70
2022/06/22 10:36:45;;;;;;;9.25;5.88;;;;;;;;;;10371816;28;20024;-75
2022/06/22 10:47:04;;;;;;;8.57;5.72;;;;;;;;;;10394276;28;20037;-75
2022/06/22 10:52:17;;;;;;;12.35;5.90;;;;;;;;;;10378597;28;20033;-76
2022/06/22 10:57:36;;;;;;;12.38;5.57;;;;;;;;;;10377299;28;20025;-75
2022/06/22 11:02:52;;;;;;;12.68;4.88;;;;;;;;;;10372057;28;20090;-70
2022/06/22 11:07:55;;;;;;;10.27;6.32;;;;;;;;;;10346335;28;20658;-73
2022/06/22 11:13:01;;;;;;;14.18;7.22;;;;;;;;;;10329451;28;20053;-72
2022/06/22 11:18:14;;;;;;;15.35;5.85;;;;;;;;;;10341342;28;20045;-73
2022/06/22 11:23:24;;;;;;;16.83;6.70;;;;;;;;;;10357797;28;20030;-74
2022/06/22 11:34:01;;;;;;;16.13;6.70;;;;;;;;;;10356821;28;20030;-71
2022/06/22 11:39:11;;;;;;;14.15;6.70;;;;;;;;;;10355295;28;20072;-70
2022/06/22 11:44:30;;;;;;;15.45;6.82;;;;;;;;;;10356871;28;20158;-70
2022/06/22 11:49:30;;;;;;;13.00;7.70;;;;;;;;;;10354238;28;20018;-76
2022/06/22 11:54:30;;;;;;;14.20;7.07;;;;;;;;;;10338267;28;20029;-71
2022/06/22 11:59:49;;;;;;;15.98;8.00;;;;;;;;;;10338884;28;20022;-70
2022/06/22 12:05:10;;;;;;;13.77;8.68;;;;;;;;;;10390290;28;20045;-73
2022/06/22 12:10:22;;;;;;;15.40;7.38;;;;;;;;;;10463643;22;20077;-75
2022/06/22 12:15:49;;;;;;;15.68;7.20;;;;;;;;;;10379627;28;20546;-77
2022/06/22 12:21:08;;;;;;;11.77;7.97;;;;;;;;;;10373395;28;20036;-74
2022/06/22 12:26:15;;;;;;;15.27;8.77;;;;;;;;;;10378103;28;20061;-70
2022/06/22 12:31:15;;;;;;;;;;;;;;;;;;10376968;28;20025;-69
2022/06/22 12:36:25;;;;;;;18.30;7.07;;;;;;;;;;10395693;28;20303;-70
2022/06/22 12:41:31;;;;;;;14.68;8.95;;;;;;;;;;10393976;28;20093;-74
2022/06/22 12:46:56;;;;;;;17.23;8.70;;;;;;;;;;10377515;28;20029;-76
2022/06/22 12:52:03;;;;;;;12.60;8.10;;;;;;;;;;10395523;28;20033;-72
2022/06/22 12:57:11;;;;;;;18.10;9.15;;;;;;;;;;10394944;28;20168;-78
2022/06/22 13:02:19;;;;;;;19.33;9.73;;;;;;;;;;10369819;28;20094;-71
2022/06/22 13:07:20;;;;;;;14.00;8.18;;;;;;;;;;10372693;28;20029;-75
2022/06/22 13:12:23;;;;;;;15.90;8.33;;;;;;;;;;10357888;28;20076;-75
2022/06/22 13:17:27;;;;;;;20.55;9.48;;;;;;;;;;10367483;28;20025;-74
2022/06/22 13:22:35;;;;;;;14.50;8.60;;;;;;;;;;10356823;28;20068;-70
2022/06/22 13:27:48;;;;;;;16.90;8.40;;;;;;;;;;10358850;28;20025;-74
2022/06/22 13:33:10;;;;;;;17.77;8.57;;;;;;;;;;10357525;28;20090;-74
2022/06/22 13:38:19;;;;;;;19.67;9.68;;;;;;;;;;10354034;28;20179;-74
2022/06/22 13:43:20;;;;;;;18.95;9.63;;;;;;;;;;10353555;28;20025;-75
2022/06/22 13:48:37;;;;;;;14.43;8.95;;;;;;;;;;10355777;28;20517;-76
2022/06/22 13:54:00;;;;;;;21.15;11.15;;;;;;;;;;10371875;28;20539;-75
2022/06/22 13:59:02;;;;;;;21.95;11.45;;;;;;;;;;10373089;28;20106;-73
2022/06/22 14:04:13;;;;;;;22.50;9.90;;;;;;;;;;10380916;28;20476;-71
2022/06/22 14:09:27;;;;;;;18.98;9.55;;;;;;;;;;10359621;28;20050;-71
2022/06/22 14:14:32;;;;;;;20.77;10.90;;;;;;;;;;10359013;28;20054;-70
2022/06/22 14:19:50;;;;;;;19.42;11.00;;;;;;;;;;10357130;28;20021;-74
2022/06/22 14:24:50;;;;;;;22.23;11.10;;;;;;;;;;10359726;28;20559;-70
2022/06/22 14:29:51;;;;;;;22.40;11.43;;;;;;;;;;10375672;28;20025;-73
2022/06/22 14:34:54;;;;;;;19.98;8.32;;;;;;;;;;10366196;28;20033;-75
2022/06/22 14:40:06;;;;;;;19.90;8.20;;;;;;;;;;10388132;28;20105;-75
2022/06/22 14:45:17;;;;;;;22.50;9.73;;;;;;;;;;10355297;28;20092;-74
2022/06/22 14:50:20;;;;;;;22.10;10.07;;;;;;;;;;10355387;28;20033;-74
2022/06/22 14:55:30;;;;;;;21.45;10.02;;;;;;;;;;10362415;28;20104;-73
2022/06/22 15:00:49;;;;;;;22.77;8.23;;;;;;;;;;10357438;28;20550;-75
2022/06/22 15:05:55;;;;;;;16.10;8.93;;;;;;;;;;10365551;28;20010;-76
2022/06/22 15:12:56;;;;;;;18.00;9.93;;;;;;;;;;10361963;28;20050;-73
2022/06/22 15:16:26;;;;;;;24.25;10.23;;;;;;;;;;10374674;28;20020;-71
2022/06/22 15:22:00;;;;;;;20.23;9.85;;;;;;;;;;10356738;28;20155;-74
2022/06/22 15:27:24;;;;;;;15.90;9.38;;;;;;;;;;10350425;28;20037;-74
2022/06/22 15:32:33;;;;;;;17.98;9.23;;;;;;;;;;10361675;28;20034;-73
2022/06/22 15:37:42;;;;;;;16.38;10.05;;;;;;;;;;10362951;28;20783;-73
2022/06/22 15:42:45;;;;;;;16.67;9.20;;;;;;;;;;10344011;28;20030;-75
2022/06/22 15:47:55;;;;;;;21.35;10.77;;;;;;;;;;10376115;28;20073;-72
2022/06/22 15:53:04;;;;;;;19.67;9.48;;;;;;;;;;10353111;28;20125;-73
2022/06/22 15:58:10;;;;;;;24.80;9.23;;;;;;;;;;10343911;28;20030;-69
2022/06/22 16:03:28;;;;;;;24.95;10.32;;;;;;;;;;10328737;28;20026;-74
2022/06/22 16:08:28;;;;;;;17.13;9.27;;;;;;;;;;10360328;28;20656;-74
2022/06/22 16:13:32;;;;;;;18.42;8.98;;;;;;;;;;10376127;28;20040;-76
2022/06/22 16:18:53;;;;;;;18.85;9.13;;;;;;;;;;10360110;28;20021;-74
2022/06/22 16:23:59;;;;;;;20.60;10.15;;;;;;;;;;10342491;28;20037;-74
2022/06/22 16:29:06;;;;;;;22.40;9.70;;;;;;;;;;10342074;28;20099;-77
2022/06/22 16:34:16;;;;;;;14.67;9.27;;;;;;;;;;10328408;28;20030;-73
2022/06/22 16:39:35;;;;;;;20.52;11.10;;;;;;;;;;10337735;28;20025;-76
2022/06/22 16:44:51;;;;;;;14.88;8.88;;;;;;;;;;10314222;28;20052;-76
2022/06/22 16:49:58;;;;;;;19.23;9.40;;;;;;;;;;10359033;28;20631;-75
2022/06/22 16:55:04;;;;;;;19.65;9.77;;;;;;;;;;10340963;28;20026;-73
2022/06/22 17:00:05;;;;;;;31.10;9.43;;;;;;;;;;10340685;28;20515;-77
2022/06/22 17:05:25;;;;;;;13.95;8.18;;;;;;;;;;10325197;28;20026;-72
2022/06/22 17:10:32;;;;;;;17.73;6.88;;;;;;;;;;10361387;28;20069;-75
2022/06/22 17:15:42;;;;;;;15.47;6.87;;;;;;;;;;10366625;28;20592;-75
2022/06/22 17:20:47;;;;;;;15.23;6.20;;;;;;;;;;10340298;28;20319;-73
2022/06/22 17:25:56;;;;;;;15.88;5.95;;;;;;;;;;10341136;28;20033;-71
2022/06/22 17:31:17;;;;;;;11.18;5.35;;;;;;;;;;10374449;28;20024;-70
2022/06/22 17:36:20;;;;;;;16.23;5.60;;;;;;;;;;10339310;28;20520;-69
2022/06/22 17:41:39;;;;;;;12.13;6.15;;;;;;;;;;10384837;28;20456;-70
2022/06/22 17:46:47;;;;;;;15.18;6.47;;;;;;;;;;10357781;28;20037;-73
2022/06/22 17:51:47;;;;;;;;;;;;;;;;;;10342141;28;20033;-75
2022/06/22 17:56:50;;;;;;;16.25;6.22;;;;;;;;;;10375366;28;19909;-73
2022/06/22 18:01:55;;;;;;;13.43;6.35;;;;;;;;;;10363374;28;20026;-73
2022/06/22 18:06:58;;;;;;;15.98;5.53;;;;;;;;;;10350118;28;20110;-71
2022/06/22 18:12:03;;;;;;;20.48;6.35;;;;;;;;;;10349942;28;20066;-72
2022/06/22 18:17:12;;;;;;;16.50;5.82;;;;;;;;;;10312692;28;20022;-74
2022/06/22 18:22:15;;;;;;;16.83;6.38;;;;;;;;;;10323934;28;20024;-74
2022/06/22 18:27:23;;;;;;;11.73;5.97;;;;;;;;;;10343247;28;20120;-75
2022/06/22 18:32:28;;;;;;;18.17;6.05;;;;;;;;;;10318796;28;20029;-69
2022/06/22 18:37:28;;;;;;;12.32;6.38;;;;;;;;;;10337759;28;20498;-70
2022/06/22 18:42:41;;;;;;;11.68;6.53;;;;;;;;;;10338551;28;20045;-74
2022/06/22 18:47:48;;;;;;;20.55;5.97;;;;;;;;;;10325053;28;20124;-74
2022/06/22 18:53:08;;;;;;;15.52;6.35;;;;;;;;;;10355348;28;20060;-70
2022/06/22 18:58:11;;;;;;;28.25;6.82;;;;;;;;;;10339044;28;20026;-74
2022/06/22 19:03:20;;;;;;;16.63;6.20;;;;;;;;;;10323259;28;20081;-76
2022/06/22 19:08:24;;;;;;;15.93;6.80;;;;;;;;;;10350962;28;20052;-74
2022/06/22 19:13:48;;;;;;;12.85;6.93;;;;;;;;;;10361457;28;20029;-75
2022/06/22 19:19:07;;;;;;;19.23;7.25;;;;;;;;;;10343913;28;20049;-74
2022/06/22 19:24:15;;;;;;;11.40;6.22;;;;;;;;;;10377901;28;20021;-71
2022/06/22 19:29:18;;;;;;;15.18;6.30;;;;;;;;;;10379622;28;20029;-74
2022/06/22 19:34:19;;;;;;;11.80;7.05;;;;;;;;;;10379895;28;20036;-75
2022/06/22 19:39:19;;;;;;;20.35;8.05;;;;;;;;;;10355901;28;20025;-73
2022/06/22 19:44:27;;;;;;;20.58;8.00;;;;;;;;;;10377340;28;20076;-77
2022/06/22 19:49:44;;;;;;;15.07;8.20;;;;;;;;;;10372187;28;20117;-73
2022/06/22 19:54:44;;;;;;;13.80;6.72;;;;;;;;;;10360243;28;20025;-77
2022/06/22 19:59:47;;;;;;;16.25;7.40;;;;;;;;;;10373412;28;20048;-72
2022/06/22 20:05:06;;;;;;;17.48;6.72;;;;;;;;;;10374406;28;20349;-72
2022/06/22 20:10:17;;;;;;;11.15;6.20;;;;;;;;;;10340988;28;20133;-70
2022/06/22 20:15:33;;;;;;;18.13;7.53;;;;;;;;;;10336306;28;20475;-74
2022/06/22 20:20:40;;;;;;;20.88;7.03;;;;;;;;;;10356720;28;20455;-76
2022/06/22 20:25:50;;;;;;;23.73;7.97;;;;;;;;;;10338688;28;20021;-74
2022/06/22 20:30:55;;;;;;;17.02;6.13;;;;;;;;;;10336914;28;20029;-73
2022/06/22 20:36:22;;;;;;;17.33;6.72;;;;;;;;;;10338500;28;20024;-69
2022/06/22 20:47:19;;;;;;;15.60;6.55;;;;;;;;;;10331806;28;20025;-76
2022/06/22 20:52:20;;;;;;;15.23;6.82;;;;;;;;;;10335531;28;20032;-69
2022/06/22 20:57:24;;;;;;;19.98;6.80;;;;;;;;;;10363678;28;20028;-74
2022/06/22 21:02:39;;;;;;;20.08;7.15;;;;;;;;;;10337775;28;20022;-69
2022/06/22 21:07:41;;;;;;;15.60;7.03;;;;;;;;;;10337428;28;20052;-71
2022/06/22 21:12:50;;;;;;;16.60;6.57;;;;;;;;;;10362221;28;20148;-69
2022/06/22 21:17:51;;;;;;;22.17;8.43;;;;;;;;;;10362236;28;20025;-71
2022/06/22 21:23:11;;;;;;;14.37;6.50;;;;;;;;;;10337551;28;20022;-68
2022/06/22 21:28:26;;;;;;;14.48;6.50;;;;;;;;;;10334095;28;20355;-74
2022/06/22 21:33:27;;;;;;;17.35;6.47;;;;;;;;;;10359517;28;20022;-74
2022/06/22 21:38:27;;;;;;;15.73;6.13;;;;;;;;;;10360072;28;20484;-72
2022/06/22 21:43:49;;;;;;;16.10;7.00;;;;;;;;;;10337018;28;20022;-69
2022/06/22 21:49:08;;;;;;;18.38;6.18;;;;;;;;;;10336560;28;20022;-71
2022/06/22 21:54:26;;;;;;;13.32;5.97;;;;;;;;;;10354637;28;20030;-71
2022/06/22 21:59:26;;;;;;;;;;;;;;;;;;10336212;28;20029;-70
2022/06/22 22:04:45;;;;;;;15.75;5.50;;;;;;;;;;10359206;28;20502;-74
2022/06/22 22:10:04;;;;;;;14.18;5.78;;;;;;;;;;10363301;28;20057;-74
2022/06/22 22:15:07;;;;;;;15.43;7.03;;;;;;;;;;10343055;28;20040;-72
2022/06/22 22:20:13;;;;;;;13.35;6.68;;;;;;;;;;10339007;28;20166;-69
2022/06/22 22:25:18;;;;;;;15.90;8.57;;;;;;;;;;10357852;28;20022;-72
2022/06/22 22:30:23;;;;;;;19.10;6.78;;;;;;;;;;10339233;28;20081;-74
2022/06/22 22:35:28;;;;;;;17.02;7.20;;;;;;;;;;10342158;28;20022;-73
2022/06/22 22:40:34;;;;;;;11.95;6.43;;;;;;;;;;10342600;28;20033;-71
2022/06/22 22:45:35;;;;;;;12.55;6.97;;;;;;;;;;10332232;28;20017;-74
2022/06/22 22:50:36;;;;;;;14.95;6.32;;;;;;;;;;10363165;28;20022;-74
2022/06/22 22:55:38;;;;;;;11.48;5.60;;;;;;;;;;10378214;28;20076;-74
2022/06/22 23:00:41;;;;;;;12.00;5.50;;;;;;;;;;10345963;28;20022;-73
2022/06/22 23:05:42;;;;;;;11.52;5.47;;;;;;;;;;10368987;28;20022;-73
2022/06/22 23:10:45;;;;;;;12.65;5.55;;;;;;;;;;10342757;28;20054;-70
2022/06/22 23:15:46;;;;;;;16.98;5.82;;;;;;;;;;10340287;28;20554;-73
2022/06/22 23:20:50;;;;;;;17.35;6.38;;;;;;;;;;10359795;28;20306;-74
2022/06/22 23:25:59;;;;;;;22.38;6.35;;;;;;;;;;10356072;28;20462;-69
2022/06/22 23:31:05;;;;;;;11.52;5.63;;;;;;;;;;10339720;28;20116;-74
2022/06/22 23:36:11;;;;;;;15.85;6.07;;;;;;;;;;10337861;28;20025;-70
2022/06/22 23:41:13;;;;;;;13.90;5.47;;;;;;;;;;10337101;28;20017;-73
2022/06/22 23:46:17;;;;;;;14.40;5.50;;;;;;;;;;10339821;28;20025;-72
2022/06/22 23:51:19;;;;;;;11.25;5.20;;;;;;;;;;10360544;28;20022;-70
2022/06/22 23:56:21;;;;;;;12.05;5.65;;;;;;;;;;10325044;28;20052;-70
